Knin, Croatia

6:56 PM CEST on October 01, 2014 (GMT +0200)
Golubic-Knin | Change Station
CLOSE
Current Station
Personal Weather Station
Location: Golubic, CROATIA
Elevation: 1358 ft
Nearby Weather Stations

Elev 1358 ft 44.11 °N, 16.21 °E | Updated 9 minutes ago

Clear
Clear
77.5 °F
Feels Like 79 °F
N
0.0
Wind Variable Wind from WNW
Gusts 0.0 mph

Today
High -- | Low -- °F
--% Chance of Precip.
Yesterday
High -- | Low -- °F
Precip. -- in
6:52 AM 6:36 PM
Waxing Crescent, 49% visible
Pressure 30.15 in
Visibility -9999.0 miles
Clouds
Heat Index 79 °F
Dew Point 57 °F
Humidity 50%
Rainfall 0.00 in
Snow Depth Not available.
UV Not available.
Pollen Not available.
Air Quality Not available.
Flu Activity Not available.
METAR LDSP 011630Z 32007KT 280V350 CAVOK 22/18 Q1021 TEMPO 32012KT

More Conditions Fewer Conditions

Pressure 30.15 in
Visibility -9999.0 miles
Clouds
Heat Index 79 °F
Dew Point 57 °F
Humidity 50%
Rainfall 0.00 in
Snow Depth Not available.
UV Not available.
Pollen Not available.
Air Quality Not available.
Flu Activity Not available.
METAR LDSP 011630Z 32007KT 280V350 CAVOK 22/18 Q1021 TEMPO 32012KT

More Conditions Fewer Conditions

10-Day Weather Forecast

Almanac

Astronomy

Oct. 01, 2014 Rise Set
Actual Time 6:52 AM CEST 6:36 PM CEST
Civil Twilight 6:23 AM CEST 7:05 PM CEST
Nautical Twilight 5:50 AM CEST 7:38 PM CEST
Astronomical Twilight 5:16 AM CEST 8:12 PM CEST
Moon 1:47 PM CEST 11:41 PM CEST
Length of Visible Light 12h 41m
Length of Day
11h 44m
Tomorrow will be 3m 0s shorter.
Waxing Crescent, 49% of the Moon is Illuminated
Today
Waxing Crescent
Oct 1
First Quarter
Oct 8
Full
Oct 15
Last Quarter
Oct 23
New

Today's Extremes

Country Highs Country Lows

Community

WunderPhotos

Upload Photos

1,757,981 photos uploaded!

WunderBlogs® & News

By Dr. Jeff Masters
Director of Meteorology, Weather Underground
By Kari Strenfel
Meteorologist, Weather Underground
By Christopher C. Burt
Weather Historian, Weather Underground
October 1, 2014
October 1, 2014
October 1, 2014

Nearby

Snow Depth

Not available.

Earthquake Activity

City Distance Mag. Time & Date
No recent earthquake activity has been reported nearby.
Minimum magnitude displayed is 2.5.

Coastal Water Temperatures

Place Temperature
No Stations Reporting

Nearby Weather Stations